Time;durP1;ratioP1;P1;durP2;ratioP2;P2;SDS_P1;SDS_P2;PMS_P1;PMS_P2;Temp;Humidity;BMP_temperature;BMP_pressure;BME280_temperature;BME280_humidity;BME280_pressure;Samples;Min_cycle;Max_cycle;Signal;HPM_P1;HPM_P2
2021/09/29 00:00:59;;;;;;;13.10;8.53;;;12.30;99.90;;;;;;4119614;28;20310;-87
2021/09/29 00:03:01;;;;;;;13.00;9.00;;;12.30;99.90;;;;;;4119730;28;20232;-87
2021/09/29 00:05:04;;;;;;;14.70;9.13;;;12.30;99.90;;;;;;4119327;28;20213;-87
2021/09/29 00:07:06;;;;;;;13.20;9.10;;;12.20;99.90;;;;;;4119721;28;20683;-89
2021/09/29 00:09:09;;;;;;;15.30;8.90;;;12.20;99.90;;;;;;4119700;28;20255;-87
2021/09/29 00:11:11;;;;;;;14.90;8.90;;;12.20;99.90;;;;;;4119589;28;20298;-87
2021/09/29 00:13:13;;;;;;;12.87;8.83;;;12.30;99.90;;;;;;4119608;28;20271;-87
2021/09/29 00:15:16;;;;;;;14.43;9.10;;;12.30;99.90;;;;;;4119582;28;20722;-87
2021/09/29 00:17:20;;;;;;;13.03;9.10;;;12.60;99.90;;;;;;4119645;28;20208;-88
2021/09/29 00:19:22;;;;;;;15.40;8.80;;;12.20;99.90;;;;;;4119586;28;20313;-89
2021/09/29 00:21:24;;;;;;;13.70;9.33;;;12.20;99.90;;;;;;4119307;28;20553;-87
2021/09/29 00:23:26;;;;;;;13.13;8.40;;;12.10;99.90;;;;;;4147123;23;20241;-81
2021/09/29 00:25:29;;;;;;;13.33;9.07;;;12.10;99.90;;;;;;4134712;28;20658;-81
2021/09/29 00:27:31;;;;;;;12.17;8.90;;;12.10;99.90;;;;;;4135326;28;20215;-80
2021/09/29 00:29:33;;;;;;;16.67;9.10;;;12.10;99.90;;;;;;4131426;28;20290;-80
2021/09/29 00:31:36;;;;;;;15.23;9.13;;;12.10;99.90;;;;;;4131097;28;20230;-84
2021/09/29 00:33:39;;;;;;;13.43;8.80;;;12.10;99.90;;;;;;4130378;28;20243;-83
2021/09/29 00:35:41;;;;;;;11.90;8.70;;;12.10;99.90;;;;;;4120856;28;20231;-83
2021/09/29 00:37:46;;;;;;;15.30;9.03;;;12.10;99.90;;;;;;4118158;28;20217;-83
2021/09/29 00:39:48;;;;;;;12.60;8.67;;;12.10;99.90;;;;;;4117839;28;20212;-84
2021/09/29 00:41:53;;;;;;;14.83;9.40;;;12.10;99.90;;;;;;4120480;28;20339;-84
2021/09/29 00:43:55;;;;;;;12.37;8.80;;;12.10;99.90;;;;;;4114945;28;20234;-84
2021/09/29 00:45:58;;;;;;;13.23;8.23;;;12.00;99.90;;;;;;4121286;28;20211;-83
2021/09/29 00:48:00;;;;;;;15.40;9.67;;;12.00;99.90;;;;;;4108987;28;20211;-83
2021/09/29 00:50:03;;;;;;;14.57;8.40;;;12.00;99.90;;;;;;4127218;28;20249;-83
2021/09/29 00:52:06;;;;;;;13.53;8.43;;;12.00;99.90;;;;;;4116045;28;20224;-84
2021/09/29 00:54:08;;;;;;;14.80;9.30;;;12.00;99.90;;;;;;4122493;28;20363;-83
2021/09/29 00:56:10;;;;;;;13.93;8.40;;;12.00;99.90;;;;;;4122733;28;20225;-83
2021/09/29 00:58:14;;;;;;;12.00;8.27;;;12.00;99.90;;;;;;4125910;28;20204;-83
2021/09/29 01:00:16;;;;;;;15.50;9.00;;;12.00;99.90;;;;;;4130740;28;20209;-83
2021/09/29 01:02:19;;;;;;;13.87;8.17;;;11.90;99.90;;;;;;4126359;28;20216;-83
2021/09/29 01:04:25;;;;;;;12.70;8.60;;;12.00;99.90;;;;;;4120240;28;20241;-83
2021/09/29 01:06:37;;;;;;;13.63;8.97;;;12.00;99.90;;;;;;4119438;28;20211;-83
2021/09/29 01:08:42;;;;;;;13.10;8.50;;;12.00;99.90;;;;;;4118740;28;20228;-83
2021/09/29 01:10:55;;;;;;;12.67;8.23;;;12.00;99.90;;;;;;4115594;28;20727;-83
2021/09/29 01:13:05;;;;;;;15.77;8.87;;;12.00;99.90;;;;;;4103428;29;20644;-83
2021/09/29 01:15:12;;;;;;;13.83;8.40;;;12.00;99.90;;;;;;4103940;28;20695;-80
2021/09/29 01:17:19;;;;;;;13.37;8.57;;;12.10;99.90;;;;;;4117581;28;20212;-84
2021/09/29 01:19:31;;;;;;;16.93;8.80;;;12.10;99.90;;;;;;4103450;29;20248;-83
2021/09/29 01:21:46;;;;;;;13.13;8.97;;;12.10;99.90;;;;;;4110864;28;20227;-83
2021/09/29 01:24:02;;;;;;;13.40;8.70;;;12.10;99.90;;;;;;4115098;28;20643;-83
2021/09/29 01:26:17;;;;;;;16.67;8.83;;;12.10;99.90;;;;;;4118747;28;20675;-83
2021/09/29 01:28:21;;;;;;;14.17;9.00;;;12.10;99.90;;;;;;4119408;28;20260;-83
2021/09/29 01:30:23;;;;;;;15.70;8.40;;;12.10;99.90;;;;;;4118337;28;20266;-83
2021/09/29 01:32:25;;;;;;;13.20;8.77;;;12.10;99.90;;;;;;4116948;28;20244;-83
2021/09/29 01:34:27;;;;;;;13.53;8.87;;;12.10;99.90;;;;;;4104031;28;20591;-83
2021/09/29 01:36:30;;;;;;;14.00;8.10;;;12.10;99.90;;;;;;4103696;28;20208;-83
2021/09/29 01:38:32;;;;;;;14.17;8.10;;;12.10;99.90;;;;;;4105223;28;20217;-83
2021/09/29 01:40:34;;;;;;;11.93;7.63;;;12.10;99.90;;;;;;4120208;28;20284;-83
2021/09/29 01:42:37;;;;;;;12.87;8.10;;;12.20;99.90;;;;;;4106453;28;20593;-83
2021/09/29 01:44:39;;;;;;;12.03;8.70;;;12.10;99.90;;;;;;4119010;28;20227;-83
2021/09/29 01:46:40;;;;;;;11.20;8.07;;;12.20;99.90;;;;;;4108719;28;20213;-83
2021/09/29 01:48:49;;;;;;;14.13;8.37;;;12.10;99.90;;;;;;4110645;28;20225;-83
2021/09/29 01:50:54;;;;;;;15.43;7.93;;;12.10;99.90;;;;;;4103842;28;20226;-83
2021/09/29 01:52:59;;;;;;;12.80;8.10;;;12.20;99.90;;;;;;4117469;28;20215;-83
2021/09/29 01:55:01;;;;;;;11.10;7.33;;;12.10;99.90;;;;;;4114263;28;20277;-83
2021/09/29 01:57:06;;;;;;;15.03;8.40;;;12.20;99.90;;;;;;4119442;28;20239;-83
2021/09/29 01:59:09;;;;;;;15.77;8.60;;;12.20;99.90;;;;;;4103753;28;20626;-83
2021/09/29 02:01:11;;;;;;;10.70;7.87;;;12.20;99.90;;;;;;4103229;28;20223;-83
2021/09/29 02:03:13;;;;;;;13.93;8.63;;;12.20;99.90;;;;;;4105216;28;20264;-83
2021/09/29 02:05:26;;;;;;;14.53;8.10;;;12.20;99.90;;;;;;4120223;28;20214;-84
2021/09/29 02:07:28;;;;;;;13.67;8.30;;;12.20;99.90;;;;;;4128991;28;20698;-84
2021/09/29 02:09:30;;;;;;;12.90;8.40;;;12.70;99.90;;;;;;4115029;28;20206;-84
2021/09/29 02:11:32;;;;;;;15.40;9.40;;;12.30;99.90;;;;;;4111547;29;20224;-83
2021/09/29 02:13:33;;;;;;;14.17;8.10;;;12.30;99.90;;;;;;4109399;28;20283;-83
2021/09/29 02:15:37;;;;;;;12.90;8.13;;;12.40;99.90;;;;;;4112683;28;20227;-84
2021/09/29 02:17:38;;;;;;;15.07;8.53;;;12.30;99.90;;;;;;4098908;28;20221;-83
2021/09/29 02:19:40;;;;;;;11.70;8.23;;;12.40;99.90;;;;;;4099329;28;20650;-83
2021/09/29 02:21:42;;;;;;;11.20;7.77;;;12.30;99.90;;;;;;4111364;28;20675;-83
2021/09/29 02:23:44;;;;;;;13.17;8.53;;;12.80;99.90;;;;;;4101529;28;20241;-83
2021/09/29 02:25:46;;;;;;;17.13;8.30;;;12.30;99.90;;;;;;4099804;28;20627;-84
2021/09/29 02:27:47;;;;;;;11.20;8.03;;;12.40;99.90;;;;;;4100990;28;20213;-83
2021/09/29 02:29:49;;;;;;;15.57;8.73;;;12.30;99.90;;;;;;4098668;28;20275;-83
2021/09/29 02:31:52;;;;;;;15.03;8.80;;;12.40;99.90;;;;;;4098985;28;20217;-83
2021/09/29 02:33:55;;;;;;;17.43;9.77;;;12.40;99.90;;;;;;4114326;28;20710;-83
2021/09/29 02:35:57;;;;;;;13.50;8.67;;;12.40;99.90;;;;;;4115832;28;20307;-83
2021/09/29 02:37:58;;;;;;;14.20;8.90;;;12.40;99.90;;;;;;4115548;28;20220;-84
2021/09/29 02:40:00;;;;;;;13.07;8.50;;;12.40;99.90;;;;;;4100531;28;20217;-84
2021/09/29 02:42:03;;;;;;;13.37;8.87;;;12.40;99.90;;;;;;4114454;28;20263;-83
2021/09/29 02:44:08;;;;;;;14.80;9.10;;;12.40;99.90;;;;;;4114795;28;20287;-83
2021/09/29 02:46:10;;;;;;;13.33;9.07;;;12.40;99.90;;;;;;4113721;28;20591;-83
2021/09/29 02:48:13;;;;;;;12.63;8.50;;;12.50;99.90;;;;;;4099189;28;20275;-83
2021/09/29 02:50:15;;;;;;;13.00;8.70;;;12.50;99.90;;;;;;4106440;28;20220;-83
2021/09/29 02:52:17;;;;;;;19.23;9.20;;;12.40;99.90;;;;;;4115351;28;20243;-84
2021/09/29 02:54:18;;;;;;;17.00;8.73;;;12.50;99.90;;;;;;4114560;28;20271;-84
2021/09/29 02:56:20;;;;;;;14.87;9.27;;;12.50;99.90;;;;;;4114861;28;20645;-83
2021/09/29 02:58:22;;;;;;;13.00;8.47;;;12.50;99.90;;;;;;4107621;28;20261;-83
2021/09/29 03:00:24;;;;;;;12.83;8.10;;;12.60;99.90;;;;;;4124029;28;20271;-84
2021/09/29 03:02:26;;;;;;;15.37;8.93;;;12.60;99.90;;;;;;4131659;28;20278;-84
2021/09/29 03:04:29;;;;;;;14.47;8.80;;;12.60;99.90;;;;;;4113889;28;20294;-83
2021/09/29 03:06:31;;;;;;;14.13;8.47;;;12.60;99.90;;;;;;4115698;28;20217;-83
2021/09/29 03:08:32;;;;;;;14.30;9.40;;;12.60;99.90;;;;;;4115797;28;20213;-84
2021/09/29 03:10:35;;;;;;;14.67;9.63;;;12.60;99.90;;;;;;4114774;28;20329;-83
2021/09/29 03:12:37;;;;;;;12.70;8.60;;;12.60;99.90;;;;;;4114053;28;20231;-83
2021/09/29 03:14:39;;;;;;;12.70;8.30;;;12.70;99.90;;;;;;4102254;28;20236;-83
2021/09/29 03:16:41;;;;;;;14.57;8.90;;;12.70;99.90;;;;;;4104248;28;20213;-83
2021/09/29 03:18:43;;;;;;;14.23;8.80;;;12.70;99.90;;;;;;4112227;28;20287;-84
2021/09/29 03:20:47;;;;;;;13.33;8.60;;;12.70;99.90;;;;;;4117956;28;20212;-84
2021/09/29 03:22:48;;;;;;;13.80;8.50;;;12.70;99.90;;;;;;4103838;28;20587;-83
2021/09/29 03:24:50;;;;;;;15.97;9.53;;;12.70;99.90;;;;;;4120018;28;20664;-83
2021/09/29 03:26:52;;;;;;;16.00;8.63;;;12.70;99.90;;;;;;4119863;28;20213;-83
2021/09/29 03:28:54;;;;;;;12.03;7.93;;;12.70;99.90;;;;;;4119056;28;20224;-83
2021/09/29 03:30:56;;;;;;;15.20;8.93;;;12.70;99.90;;;;;;4114225;28;20224;-84
2021/09/29 03:32:57;;;;;;;14.23;9.30;;;12.70;99.90;;;;;;4119744;28;20582;-84
2021/09/29 03:34:59;;;;;;;14.33;8.70;;;12.70;99.90;;;;;;4118333;28;20298;-84
2021/09/29 03:37:03;;;;;;;14.33;8.60;;;12.70;99.90;;;;;;4120031;28;20566;-84
2021/09/29 03:39:05;;;;;;;13.00;9.07;;;12.80;99.90;;;;;;4119537;28;20209;-84
2021/09/29 03:41:07;;;;;;;13.77;8.60;;;12.80;99.90;;;;;;4119403;28;20224;-83
2021/09/29 03:43:09;;;;;;;14.00;8.73;;;12.80;99.90;;;;;;4107085;28;20252;-83
2021/09/29 03:45:12;;;;;;;12.43;8.80;;;12.80;99.90;;;;;;4109649;28;20206;-84
2021/09/29 03:47:14;;;;;;;13.17;8.83;;;12.80;99.90;;;;;;4118389;28;20214;-81
2021/09/29 03:49:15;;;;;;;14.57;9.10;;;12.80;99.90;;;;;;4105269;28;20218;-81
2021/09/29 03:51:17;;;;;;;13.90;8.53;;;12.80;99.90;;;;;;4104207;28;20221;-81
2021/09/29 03:53:20;;;;;;;14.10;8.43;;;12.80;99.90;;;;;;4102892;28;20740;-84
2021/09/29 03:55:22;;;;;;;12.63;8.30;;;12.90;99.90;;;;;;4111628;28;20220;-84
2021/09/29 03:57:24;;;;;;;14.53;8.67;;;12.90;99.90;;;;;;4117682;28;20236;-83
2021/09/29 03:59:26;;;;;;;14.33;8.27;;;12.90;99.90;;;;;;4119519;28;20219;-83
2021/09/29 04:01:28;;;;;;;13.73;8.50;;;13.00;99.90;;;;;;4103904;28;20744;-83
2021/09/29 04:03:29;;;;;;;15.10;9.53;;;13.00;99.90;;;;;;4110939;28;20241;-83
2021/09/29 04:05:31;;;;;;;15.73;8.80;;;12.90;99.90;;;;;;4111468;28;20210;-84
2021/09/29 04:07:33;;;;;;;14.17;8.73;;;13.00;99.90;;;;;;4103551;28;20264;-83
2021/09/29 04:09:36;;;;;;;14.37;8.70;;;13.00;99.90;;;;;;4103179;28;20221;-84
2021/09/29 04:11:39;;;;;;;15.30;9.20;;;13.00;99.90;;;;;;4117373;28;20253;-84
2021/09/29 04:13:40;;;;;;;13.20;8.40;;;13.00;99.90;;;;;;4120830;28;20233;-82
2021/09/29 04:15:42;;;;;;;15.70;9.43;;;13.00;99.90;;;;;;4119612;28;20240;-81
2021/09/29 04:17:44;;;;;;;14.63;9.27;;;13.00;99.90;;;;;;4121954;28;20229;-81
2021/09/29 04:19:46;;;;;;;13.53;8.73;;;13.10;99.90;;;;;;4120234;28;20280;-81
2021/09/29 04:21:48;;;;;;;15.60;9.13;;;13.10;99.90;;;;;;4120939;28;20205;-82
2021/09/29 04:23:50;;;;;;;15.77;9.40;;;13.10;99.90;;;;;;4119688;28;20248;-82
2021/09/29 04:25:53;;;;;;;17.70;9.70;;;13.10;99.90;;;;;;4115910;28;20229;-84
2021/09/29 04:27:55;;;;;;;18.30;9.87;;;13.10;99.90;;;;;;4103861;28;20203;-83
2021/09/29 04:29:56;;;;;;;17.67;9.70;;;13.20;99.90;;;;;;4105000;28;20218;-83
2021/09/29 04:31:58;;;;;;;18.37;10.83;;;13.20;99.90;;;;;;4105140;28;20280;-81
2021/09/29 04:34:00;;;;;;;17.63;10.83;;;13.20;99.90;;;;;;4121404;28;20237;-81
2021/09/29 04:36:03;;;;;;;17.93;10.90;;;13.20;99.90;;;;;;4120923;28;20233;-81
2021/09/29 04:38:05;;;;;;;17.83;10.23;;;13.20;99.90;;;;;;4120611;28;20738;-81
2021/09/29 04:40:08;;;;;;;17.90;10.27;;;13.20;99.90;;;;;;4104017;28;20257;-82
2021/09/29 04:42:11;;;;;;;18.20;10.57;;;13.30;99.90;;;;;;4107220;28;20279;-82
2021/09/29 04:44:13;;;;;;;17.10;9.90;;;13.30;99.90;;;;;;4118752;28;20244;-82
2021/09/29 04:46:15;;;;;;;19.87;10.30;;;13.30;99.90;;;;;;4112321;29;20744;-81
2021/09/29 04:48:18;;;;;;;20.40;10.20;;;13.30;99.90;;;;;;4112435;28;20218;-82
2021/09/29 04:50:20;;;;;;;20.03;11.40;;;13.30;99.90;;;;;;4119666;28;20218;-82
2021/09/29 04:52:23;;;;;;;18.40;10.77;;;13.30;99.90;;;;;;4120041;28;20218;-82
2021/09/29 04:54:25;;;;;;;20.87;10.57;;;13.40;99.90;;;;;;4112653;28;20264;-82
2021/09/29 04:56:27;;;;;;;19.83;10.40;;;13.40;99.90;;;;;;4131796;28;20209;-82
2021/09/29 04:58:30;;;;;;;19.40;11.50;;;13.40;99.90;;;;;;4121764;28;20280;-82
2021/09/29 05:00:33;;;;;;;19.93;11.53;;;13.40;99.90;;;;;;4124642;28;20213;-82
2021/09/29 05:02:35;;;;;;;19.77;11.30;;;13.40;99.90;;;;;;4124397;28;20269;-82
2021/09/29 05:04:37;;;;;;;19.70;11.33;;;13.40;99.90;;;;;;4123212;28;20241;-82
2021/09/29 05:06:41;;;;;;;21.03;11.87;;;13.50;99.90;;;;;;4118274;28;20222;-81
2021/09/29 05:08:44;;;;;;;18.57;11.07;;;13.50;99.90;;;;;;4113000;28;20209;-82
2021/09/29 05:10:51;;;;;;;18.77;10.93;;;13.50;99.90;;;;;;4116351;28;20210;-82
2021/09/29 05:12:53;;;;;;;20.17;10.73;;;13.50;99.90;;;;;;4104274;29;20281;-82
2021/09/29 05:14:57;;;;;;;22.93;11.63;;;13.50;99.90;;;;;;4103380;28;20237;-82
2021/09/29 05:16:59;;;;;;;19.80;11.27;;;13.50;99.90;;;;;;4109298;28;20212;-82
2021/09/29 05:19:01;;;;;;;17.70;10.80;;;13.50;99.90;;;;;;4120820;28;20312;-82
2021/09/29 05:21:03;;;;;;;19.20;11.17;;;13.60;99.90;;;;;;4120020;28;20303;-82
2021/09/29 05:23:05;;;;;;;19.30;11.07;;;13.60;99.90;;;;;;4118896;28;20304;-81
2021/09/29 05:25:07;;;;;;;23.33;11.17;;;13.60;99.90;;;;;;4120222;28;20234;-82
2021/09/29 05:27:09;;;;;;;20.37;11.07;;;13.60;99.90;;;;;;4119317;28;20315;-82
2021/09/29 05:29:12;;;;;;;18.30;10.37;;;13.60;99.90;;;;;;4118638;28;20268;-82
2021/09/29 05:31:15;;;;;;;20.10;11.57;;;13.60;99.90;;;;;;4119131;28;20704;-83
2021/09/29 05:33:17;;;;;;;20.23;11.50;;;13.80;99.90;;;;;;4107913;28;20305;-82
2021/09/29 05:35:19;;;;;;;20.73;11.50;;;13.60;99.90;;;;;;4103285;28;20265;-82
2021/09/29 05:37:21;;;;;;;18.70;9.97;;;13.70;99.90;;;;;;4102144;28;20269;-82
2021/09/29 05:39:23;;;;;;;20.67;10.80;;;13.70;99.90;;;;;;4107340;28;20272;-82
2021/09/29 05:41:25;;;;;;;22.40;11.33;;;13.70;99.90;;;;;;4118592;28;20217;-82
2021/09/29 05:43:27;;;;;;;21.13;11.77;;;13.70;99.90;;;;;;4119815;28;20518;-82
2021/09/29 05:45:28;;;;;;;18.87;11.00;;;13.70;99.90;;;;;;4109605;28;20588;-82
2021/09/29 05:47:32;;;;;;;20.03;11.07;;;13.70;99.90;;;;;;4123567;28;20217;-82
2021/09/29 05:49:34;;;;;;;19.23;11.27;;;13.70;99.90;;;;;;4103831;28;20213;-82
2021/09/29 05:51:36;;;;;;;23.27;12.30;;;13.70;99.90;;;;;;4102784;28;20213;-82
2021/09/29 05:53:38;;;;;;;21.47;11.67;;;13.70;99.90;;;;;;4107386;28;20279;-82
2021/09/29 05:55:40;;;;;;;18.93;11.03;;;13.70;99.90;;;;;;4120755;28;20228;-82
2021/09/29 05:57:42;;;;;;;19.47;11.27;;;13.80;99.90;;;;;;4120818;28;20213;-83
2021/09/29 05:59:46;;;;;;;23.07;12.60;;;13.80;99.90;;;;;;4132202;28;20216;-83
2021/09/29 06:01:47;;;;;;;23.20;11.57;;;13.80;99.90;;;;;;4131357;28;20243;-84
2021/09/29 06:03:50;;;;;;;21.33;11.87;;;13.80;99.90;;;;;;4125019;28;20237;-83
2021/09/29 06:05:52;;;;;;;19.60;11.40;;;13.80;99.90;;;;;;4123459;28;20216;-82
2021/09/29 06:07:54;;;;;;;22.63;11.70;;;13.80;99.90;;;;;;4124563;28;20216;-83
2021/09/29 06:09:56;;;;;;;23.43;12.73;;;13.80;99.90;;;;;;4107857;28;20898;-84
2021/09/29 06:11:57;;;;;;;22.07;11.97;;;13.90;99.90;;;;;;4110015;28;20221;-84
2021/09/29 06:14:02;;;;;;;22.87;12.80;;;13.90;99.90;;;;;;4109613;28;20391;-82
2021/09/29 06:16:08;;;;;;;23.27;12.73;;;14.40;99.90;;;;;;4105558;28;20237;-83
2021/09/29 06:18:13;;;;;;;20.00;11.67;;;13.90;99.90;;;;;;4103200;28;20213;-84
2021/09/29 06:20:16;;;;;;;22.90;12.80;;;13.90;99.90;;;;;;4105162;28;20278;-82
2021/09/29 06:22:18;;;;;;;21.00;11.80;;;13.90;99.90;;;;;;4102974;28;20277;-84
2021/09/29 06:24:20;;;;;;;24.37;12.40;;;13.90;99.90;;;;;;4136812;23;20239;-89
2021/09/29 06:26:22;;;;;;;19.83;11.67;;;14.00;99.90;;;;;;4094246;29;20209;-89
2021/09/29 06:28:24;;;;;;;21.83;12.30;;;14.00;99.90;;;;;;4083292;29;20208;-89
2021/09/29 06:30:26;;;;;;;22.77;12.93;;;14.10;99.90;;;;;;4077519;29;20636;-89
2021/09/29 06:32:27;;;;;;;20.33;11.90;;;14.00;99.90;;;;;;4078634;29;20277;-89
2021/09/29 06:34:29;;;;;;;17.83;10.80;;;14.00;99.90;;;;;;4083288;29;20231;-89
2021/09/29 06:36:32;;;;;;;20.53;12.23;;;14.00;99.90;;;;;;4083434;29;20295;-89
2021/09/29 06:38:34;;;;;;;22.40;12.13;;;14.10;99.90;;;;;;4079088;29;20226;-89
2021/09/29 06:40:36;;;;;;;23.17;12.70;;;14.10;99.90;;;;;;4082516;29;20220;-89
2021/09/29 06:42:38;;;;;;;22.57;11.67;;;14.10;99.90;;;;;;4082573;29;20210;-89
2021/09/29 06:44:39;;;;;;;21.00;11.90;;;14.50;99.90;;;;;;4082172;29;20244;-88
2021/09/29 06:46:41;;;;;;;22.43;12.27;;;14.80;99.90;;;;;;4083343;29;20657;-89
2021/09/29 06:48:43;;;;;;;21.67;12.43;;;14.10;99.90;;;;;;4072918;29;20961;-89
2021/09/29 06:50:45;;;;;;;24.00;13.03;;;14.10;99.90;;;;;;4069183;29;20236;-89
2021/09/29 06:52:48;;;;;;;23.30;13.20;;;14.10;99.90;;;;;;4071297;29;20668;-89
2021/09/29 06:54:50;;;;;;;22.20;13.27;;;14.10;99.90;;;;;;4088735;29;20231;-89
2021/09/29 06:56:51;;;;;;;20.93;12.33;;;14.20;99.90;;;;;;4074795;29;20232;-89
2021/09/29 06:58:53;;;;;;;22.10;12.27;;;14.10;99.90;;;;;;4084635;29;20285;-89
2021/09/29 07:00:55;;;;;;;21.67;12.43;;;14.20;99.90;;;;;;4092847;29;20581;-89
2021/09/29 07:02:57;;;;;;;24.27;13.37;;;14.20;99.90;;;;;;4086660;29;20607;-89
2021/09/29 07:04:58;;;;;;;22.27;12.00;;;14.70;99.90;;;;;;4082387;29;20231;-89
2021/09/29 07:07:00;;;;;;;21.43;12.47;;;14.20;99.90;;;;;;4081886;29;20259;-89
2021/09/29 07:09:03;;;;;;;22.13;12.90;;;14.60;99.90;;;;;;4085806;29;20215;-89
2021/09/29 07:11:06;;;;;;;22.57;13.03;;;14.20;99.90;;;;;;4086052;29;20258;-89
2021/09/29 07:13:08;;;;;;;23.13;13.47;;;15.00;99.90;;;;;;4080302;29;20234;-88
2021/09/29 07:15:12;;;;;;;19.47;11.67;;;14.20;99.90;;;;;;4086189;29;20268;-89
2021/09/29 07:17:14;;;;;;;20.07;12.43;;;14.20;99.90;;;;;;4085249;29;20713;-89
2021/09/29 07:19:16;;;;;;;23.47;13.07;;;14.20;99.90;;;;;;4085067;29;20206;-89
2021/09/29 07:21:18;;;;;;;21.17;13.03;;;14.20;99.90;;;;;;4084242;29;20212;-89
2021/09/29 07:23:20;;;;;;;25.17;12.97;;;14.50;99.90;;;;;;4089294;29;20218;-89
2021/09/29 07:25:23;;;;;;;23.40;13.20;;;14.30;99.90;;;;;;4085405;29;20218;-89
2021/09/29 07:27:24;;;;;;;23.17;13.00;;;14.30;99.90;;;;;;4084919;29;20540;-89
2021/09/29 07:29:27;;;;;;;23.40;12.87;;;14.20;99.90;;;;;;4083162;29;20211;-89
2021/09/29 07:31:30;;;;;;;24.33;12.67;;;14.30;99.90;;;;;;4070454;29;20313;-89
2021/09/29 07:33:35;;;;;;;22.33;13.17;;;14.50;99.90;;;;;;4072846;29;20241;-89
2021/09/29 07:35:38;;;;;;;22.63;13.27;;;14.20;99.90;;;;;;4086109;29;20210;-89
2021/09/29 07:37:40;;;;;;;20.70;12.50;;;14.30;99.90;;;;;;4085430;29;20617;-89
2021/09/29 07:39:42;;;;;;;23.40;13.37;;;14.30;99.90;;;;;;4076060;29;20215;-89
2021/09/29 07:41:46;;;;;;;24.40;13.07;;;14.40;99.90;;;;;;4069619;29;20216;-89
2021/09/29 07:43:48;;;;;;;23.90;13.47;;;14.50;99.90;;;;;;4095207;28;20238;-89
2021/09/29 07:45:49;;;;;;;23.83;13.63;;;14.40;99.90;;;;;;4101795;28;20211;-88
2021/09/29 07:47:52;;;;;;;26.20;13.73;;;14.30;99.90;;;;;;4102004;28;20273;-88
2021/09/29 07:49:54;;;;;;;26.03;14.03;;;14.40;99.90;;;;;;4102229;28;20241;-90
2021/09/29 07:51:57;;;;;;;26.37;16.17;;;14.30;99.90;;;;;;4102117;28;20213;-88
2021/09/29 07:53:59;;;;;;;28.90;15.70;;;14.10;99.90;;;;;;4101674;28;20312;-89
2021/09/29 07:56:01;;;;;;;25.57;14.63;;;14.30;99.90;;;;;;4101337;28;20234;-90
2021/09/29 07:58:04;;;;;;;25.13;15.37;;;14.30;99.90;;;;;;4100871;28;20218;-90
2021/09/29 08:00:08;;;;;;;22.77;13.67;;;14.30;99.90;;;;;;4085232;28;20215;-89
2021/09/29 08:02:10;;;;;;;25.23;14.70;;;14.30;99.90;;;;;;4070898;29;20208;-89
2021/09/29 08:04:16;;;;;;;23.43;13.47;;;14.30;99.90;;;;;;4069583;29;20239;-89
2021/09/29 08:06:18;;;;;;;24.43;14.00;;;14.50;99.90;;;;;;4069558;29;20205;-88
2021/09/29 08:08:20;;;;;;;22.07;13.77;;;14.30;99.90;;;;;;4069511;29;20222;-89
2021/09/29 08:10:22;;;;;;;21.90;13.20;;;15.10;99.90;;;;;;4084447;29;20799;-89
2021/09/29 08:12:24;;;;;;;24.73;14.57;;;14.50;99.90;;;;;;4075939;29;20218;-89
2021/09/29 08:14:27;;;;;;;23.60;14.37;;;14.20;99.90;;;;;;4086485;29;20269;-88
2021/09/29 08:16:31;;;;;;;23.93;13.40;;;14.40;99.90;;;;;;4088339;28;20239;-89
2021/09/29 08:18:33;;;;;;;21.70;13.63;;;14.40;99.90;;;;;;4068973;29;20212;-89
2021/09/29 08:20:37;;;;;;;20.63;12.77;;;14.40;99.90;;;;;;4069579;29;20203;-90
2021/09/29 08:22:40;;;;;;;25.10;14.37;;;14.40;99.90;;;;;;4080237;29;20567;-88
2021/09/29 08:24:46;;;;;;;24.50;13.67;;;14.40;99.90;;;;;;4084603;29;20240;-88
2021/09/29 08:26:59;;;;;;;22.47;12.97;;;14.50;99.90;;;;;;4076857;29;20270;-88
2021/09/29 08:29:19;;;;;;;24.47;14.00;;;14.50;99.90;;;;;;4098184;29;20292;-91
2021/09/29 08:31:28;;;;;;;24.47;13.57;;;14.50;99.90;;;;;;4087284;29;20213;-87
2021/09/29 08:33:47;;;;;;;22.93;13.20;;;14.50;99.90;;;;;;4083497;29;20270;-82
2021/09/29 08:35:56;;;;;;;22.57;14.00;;;14.50;99.90;;;;;;4093986;29;20306;-86
2021/09/29 08:38:05;;;;;;;25.13;14.13;;;14.60;99.90;;;;;;4085046;29;20226;-86
2021/09/29 08:40:14;;;;;;;26.97;14.60;;;14.80;99.90;;;;;;4079445;29;20289;-87
2021/09/29 08:42:24;;;;;;;25.20;14.17;;;14.60;99.90;;;;;;4084093;29;20227;-88
2021/09/29 08:44:29;;;;;;;20.57;14.10;;;14.70;99.90;;;;;;4085846;29;20777;-86
2021/09/29 08:46:35;;;;;;;22.50;13.47;;;14.70;99.90;;;;;;4092933;29;20628;-83
2021/09/29 08:48:45;;;;;;;28.20;15.73;;;14.70;99.90;;;;;;4086182;29;20271;-88
2021/09/29 08:53:29;;;;;;;27.37;14.20;;;14.80;99.90;;;;;;4061965;29;20258;-89
2021/09/29 09:14:55;;;;;;;29.23;16.00;;;15.10;99.90;;;;;;4086124;29;20340;-88
2021/09/29 09:16:59;;;;;;;23.73;14.87;;;15.10;99.90;;;;;;4082057;29;20231;-81
2021/09/29 09:19:07;;;;;;;24.17;15.33;;;15.40;99.90;;;;;;4083442;29;20745;-89
2021/09/29 09:21:16;;;;;;;29.87;15.77;;;15.40;99.90;;;;;;4085216;29;20302;-89
2021/09/29 09:23:18;;;;;;;28.30;15.60;;;15.50;99.90;;;;;;4083822;29;20450;-87
2021/09/29 09:25:34;;;;;;;27.53;15.97;;;15.60;99.90;;;;;;4091086;29;20252;-87
2021/09/29 09:27:45;;;;;;;25.47;15.17;;;15.60;99.90;;;;;;4081002;29;20688;-88
2021/09/29 09:29:49;;;;;;;25.23;15.67;;;15.60;99.90;;;;;;4084907;29;20268;-88
2021/09/29 09:31:53;;;;;;;25.00;14.00;;;15.70;99.90;;;;;;4085447;29;20229;-88
2021/09/29 09:33:57;;;;;;;28.07;15.50;;;15.60;99.90;;;;;;4084550;29;20321;-88
2021/09/29 09:36:00;;;;;;;27.70;15.77;;;15.80;99.90;;;;;;4085052;29;20225;-89
2021/09/29 09:38:12;;;;;;;26.30;14.83;;;15.80;99.90;;;;;;4084341;29;20241;-87
2021/09/29 09:40:16;;;;;;;27.17;15.27;;;15.80;99.90;;;;;;4082175;29;20216;-87
2021/09/29 09:42:25;;;;;;;24.70;15.07;;;15.80;99.90;;;;;;4082195;29;20266;-90
2021/09/29 09:44:29;;;;;;;24.93;14.93;;;15.80;99.90;;;;;;4081024;29;20276;-88
2021/09/29 09:46:31;;;;;;;28.07;15.30;;;16.00;99.90;;;;;;4079526;29;20215;-89
2021/09/29 09:48:35;;;;;;;26.40;14.90;;;15.80;99.90;;;;;;4082048;29;20672;-88
2021/09/29 09:50:37;;;;;;;25.57;14.63;;;15.80;99.90;;;;;;4079519;29;20221;-87
2021/09/29 09:52:42;;;;;;;28.97;15.40;;;15.80;99.90;;;;;;4081204;29;20238;-88
2021/09/29 09:54:44;;;;;;;26.93;15.77;;;15.80;99.90;;;;;;4097394;28;20230;-88
2021/09/29 09:56:55;;;;;;;23.40;14.90;;;15.80;99.90;;;;;;4086685;29;20714;-88
2021/09/29 09:59:13;;;;;;;23.50;14.20;;;15.90;99.90;;;;;;4078260;29;20249;-88
2021/09/29 10:01:18;;;;;;;24.47;14.60;;;15.80;99.90;;;;;;4083183;29;20309;-88
2021/09/29 10:03:27;;;;;;;30.27;14.67;;;15.80;99.90;;;;;;4081510;29;20215;-86
2021/09/29 10:05:30;;;;;;;23.37;13.07;;;15.90;99.90;;;;;;4078667;29;20269;-87
2021/09/29 10:07:32;;;;;;;23.83;13.63;;;15.90;99.90;;;;;;4079877;29;20586;-86
2021/09/29 10:09:40;;;;;;;23.33;13.50;;;16.00;99.90;;;;;;4081248;29;20242;-87
2021/09/29 10:11:53;;;;;;;22.50;13.07;;;16.00;99.90;;;;;;4071733;29;20206;-86
2021/09/29 10:23:28;;;;;;;17.37;11.00;;;16.60;99.90;;;;;;4074525;28;20222;-86
2021/09/29 10:27:54;;;;;;;17.97;10.67;;;17.20;99.90;;;;;;4079659;29;20265;-87
2021/09/29 10:30:01;;;;;;;17.90;11.17;;;17.00;99.90;;;;;;4072811;29;20684;-86
2021/09/29 10:32:13;;;;;;;16.30;10.70;;;17.10;99.90;;;;;;4079550;29;20682;-87
2021/09/29 10:34:28;;;;;;;15.90;10.33;;;17.20;99.90;;;;;;4078652;29;20600;-89
2021/09/29 10:36:43;;;;;;;16.20;10.43;;;17.30;99.90;;;;;;4080309;29;20211;-85
2021/09/29 10:41:36;;;;;;;15.47;9.47;;;17.40;99.90;;;;;;4075345;29;20219;-87
2021/09/29 10:43:58;;;;;;;14.23;8.67;;;17.40;99.90;;;;;;4079895;29;20743;-89
2021/09/29 10:46:07;;;;;;;15.40;8.37;;;17.30;99.90;;;;;;4082753;29;20679;-88
2021/09/29 10:48:42;;;;;;;11.53;7.33;;;17.20;99.90;;;;;;4092667;29;20222;-84
2021/09/29 10:51:14;;;;;;;10.23;6.87;;;17.10;99.90;;;;;;4078530;29;20214;-84
2021/09/29 11:29:22;;;;;;;11.03;5.93;;;18.10;99.90;;;;;;4083347;29;20276;-85
2021/09/29 11:31:26;;;;;;;8.60;5.70;;;18.30;99.90;;;;;;4075632;29;20598;-85
2021/09/29 11:33:33;;;;;;;9.57;6.00;;;18.50;99.90;;;;;;4079719;29;20695;-86
2021/09/29 11:35:52;;;;;;;9.47;5.80;;;18.70;99.90;;;;;;4080973;29;20221;-89
2021/09/29 11:38:27;;;;;;;10.20;5.33;;;18.90;99.90;;;;;;4084992;29;20324;-86
2021/09/29 12:09:06;;;;;;;3.87;2.73;;;22.00;97.40;;;;;;4074504;29;20605;-77
2021/09/29 12:11:13;;;;;;;7.40;2.90;;;22.70;93.40;;;;;;4080921;29;20218;-80
2021/09/29 12:13:15;;;;;;;3.10;2.30;;;23.10;91.40;;;;;;4083909;29;20249;-77